createdAt,value
2019-02-05T00:01:47.800Z,14.63
2019-02-05T00:04:17.633Z,15.57
2019-02-05T00:06:48.567Z,16.20
2019-02-05T00:09:17.531Z,17.17
2019-02-05T00:11:46.490Z,14.47
2019-02-05T00:14:16.211Z,14.57
2019-02-05T00:16:45.629Z,17.63
2019-02-05T00:19:16.572Z,12.13
2019-02-05T00:21:45.504Z,13.43
2019-02-05T00:24:14.260Z,13.80
2019-02-05T00:26:47.027Z,11.80
2019-02-05T00:29:16.928Z,11.47
2019-02-05T00:31:46.244Z,12.30
2019-02-05T00:34:15.847Z,14.33
2019-02-05T00:36:44.755Z,13.30
2019-02-05T00:39:13.974Z,15.03
2019-02-05T00:41:43.256Z,17.10
2019-02-05T00:44:13.400Z,15.13
2019-02-05T00:46:42.424Z,11.80
2019-02-05T00:49:11.344Z,14.03
2019-02-05T00:51:42.456Z,12.87
2019-02-05T00:54:11.248Z,14.97
2019-02-05T00:56:40.076Z,15.90
2019-02-05T00:59:10.660Z,15.10
2019-02-05T01:01:40.068Z,17.20
2019-02-05T01:04:08.996Z,15.10
2019-02-05T01:06:37.831Z,16.23
2019-02-05T01:09:09.706Z,16.07
2019-02-05T01:11:39.455Z,14.43
2019-02-05T01:14:08.436Z,15.23
2019-02-05T01:16:37.407Z,17.97
2019-02-05T01:19:06.389Z,16.10
2019-02-05T01:21:36.552Z,14.27
2019-02-05T01:24:05.620Z,13.50
2019-02-05T01:26:34.920Z,15.17
2019-02-05T01:29:03.918Z,12.70
2019-02-05T01:31:33.767Z,15.97
2019-02-05T01:34:03.836Z,16.00
2019-02-05T01:36:34.649Z,14.47
2019-02-05T01:39:05.956Z,14.33
2019-02-05T01:41:35.668Z,14.70
2019-02-05T01:44:04.656Z,13.43
2019-02-05T01:46:35.291Z,12.70
2019-02-05T01:49:04.312Z,16.53
2019-02-05T01:51:33.870Z,11.83
2019-02-05T01:54:02.775Z,16.10
2019-02-05T01:56:40.346Z,15.77
2019-02-05T01:59:05.955Z,13.00
2019-02-05T02:01:35.468Z,12.67
2019-02-05T02:04:05.580Z,15.27
2019-02-05T02:06:36.811Z,13.90
2019-02-05T02:09:06.748Z,14.10
2019-02-05T02:11:36.050Z,15.40
2019-02-05T02:14:07.017Z,14.20
2019-02-05T02:16:36.836Z,16.67
2019-02-05T02:19:05.797Z,15.43
2019-02-05T02:21:35.825Z,15.13
2019-02-05T02:24:06.975Z,12.47
2019-02-05T02:26:38.857Z,15.37
2019-02-05T02:29:07.824Z,13.20
2019-02-05T02:31:38.117Z,15.60
2019-02-05T02:34:07.843Z,15.47
2019-02-05T02:36:37.004Z,16.50
2019-02-05T02:39:07.609Z,12.90
2019-02-05T02:41:38.056Z,12.47
2019-02-05T02:44:07.985Z,13.93
2019-02-05T02:46:37.842Z,15.60
2019-02-05T02:49:07.120Z,15.70
2019-02-05T02:51:36.820Z,19.03
2019-02-05T02:54:05.892Z,18.60
2019-02-05T02:56:34.939Z,13.97
2019-02-05T02:59:04.064Z,13.93
2019-02-05T03:01:34.072Z,13.63
2019-02-05T03:04:04.449Z,13.80
2019-02-05T03:06:34.902Z,16.13
2019-02-05T03:09:08.908Z,17.00
2019-02-05T03:11:38.668Z,15.43
2019-02-05T03:14:08.402Z,15.27
2019-02-05T03:16:37.799Z,16.97
2019-02-05T03:19:07.652Z,13.67
2019-02-05T03:21:37.591Z,14.77
2019-02-05T03:24:07.461Z,19.27
2019-02-05T03:26:36.405Z,15.30
2019-02-05T03:29:07.767Z,16.40
2019-02-05T03:31:38.019Z,19.20
2019-02-05T03:34:07.634Z,18.17
2019-02-05T03:36:37.193Z,17.43
2019-02-05T03:39:07.499Z,19.37
2019-02-05T03:41:38.396Z,18.37
2019-02-05T03:44:07.639Z,20.33
2019-02-05T03:46:38.485Z,17.90
2019-02-05T03:49:07.668Z,17.33
2019-02-05T03:52:06.737Z,21.93
2019-02-05T03:55:29.789Z,20.70
2019-02-05T03:58:27.421Z,19.63
2019-02-05T04:01:35.045Z,17.57
2019-02-05T04:04:40.679Z,20.60
2019-02-05T04:08:07.104Z,21.20
2019-02-05T04:11:20.967Z,18.67
2019-02-05T04:14:31.337Z,19.17
2019-02-05T04:17:30.307Z,20.00
2019-02-05T04:20:31.432Z,19.87
2019-02-05T04:23:45.947Z,23.43
2019-02-05T04:26:51.793Z,17.40
2019-02-05T04:29:45.997Z,21.30
2019-02-05T04:33:00.891Z,19.37
2019-02-05T04:36:11.421Z,21.57
2019-02-05T04:39:07.368Z,19.20
2019-02-05T04:42:05.924Z,20.27
2019-02-05T04:45:12.028Z,16.07
2019-02-05T04:48:18.781Z,20.37
2019-02-05T04:51:23.936Z,15.80
2019-02-05T04:54:45.539Z,18.77
2019-02-05T04:57:35.404Z,16.90
2019-02-05T05:00:34.667Z,18.27
2019-02-05T05:03:36.717Z,19.07
2019-02-05T05:06:33.252Z,19.20
2019-02-05T05:09:48.036Z,19.27
2019-02-05T05:12:18.632Z,18.70
2019-02-05T05:14:48.052Z,19.60
2019-02-05T05:17:16.973Z,17.97
2019-02-05T05:19:47.421Z,19.73
2019-02-05T05:22:17.715Z,16.47
2019-02-05T05:24:48.312Z,17.77
2019-02-05T05:27:19.922Z,19.23
2019-02-05T05:29:50.845Z,18.13
2019-02-05T05:32:20.932Z,17.67
2019-02-05T05:34:50.277Z,17.17
2019-02-05T05:37:18.196Z,18.53
2019-02-05T05:39:47.408Z,17.13
2019-02-05T05:42:18.162Z,21.73
2019-02-05T05:44:47.438Z,17.93
2019-02-05T05:47:16.788Z,17.20
2019-02-05T05:49:46.207Z,27.27
2019-02-05T05:52:15.860Z,19.10
2019-02-05T05:54:46.290Z,19.27
2019-02-05T05:57:18.705Z,18.43
2019-02-05T05:59:46.431Z,22.77
2019-02-05T06:02:17.959Z,18.53
2019-02-05T06:04:47.760Z,19.13
2019-02-05T06:07:17.016Z,22.23
2019-02-05T06:09:46.607Z,16.33
2019-02-05T06:12:16.548Z,17.53
2019-02-05T06:14:46.332Z,20.70
2019-02-05T06:17:16.346Z,18.67
2019-02-05T06:19:45.254Z,18.17
2019-02-05T06:22:14.748Z,20.37
2019-02-05T06:24:44.209Z,19.67
2019-02-05T06:27:13.676Z,21.37
2019-02-05T06:29:43.325Z,19.10
2019-02-05T06:32:12.732Z,23.47
2019-02-05T06:34:42.111Z,23.90
2019-02-05T06:37:11.330Z,21.93
2019-02-05T06:39:41.640Z,21.40
2019-02-05T06:42:10.581Z,25.13
2019-02-05T06:44:41.196Z,21.23
2019-02-05T06:47:11.192Z,22.63
2019-02-05T06:49:44.276Z,20.80
2019-02-05T06:52:16.007Z,23.23
2019-02-05T06:54:47.535Z,22.70
2019-02-05T06:57:17.095Z,20.27
2019-02-05T06:59:47.236Z,23.13
2019-02-05T07:02:18.079Z,20.80
2019-02-05T07:04:46.912Z,22.50
2019-02-05T07:07:19.470Z,23.67
2019-02-05T07:09:48.241Z,27.00
2019-02-05T07:12:18.524Z,23.73
2019-02-05T07:14:47.985Z,21.33
2019-02-05T07:17:19.129Z,19.63
2019-02-05T07:19:48.316Z,23.53
2019-02-05T07:22:17.141Z,22.07
2019-02-05T07:24:46.424Z,21.93
2019-02-05T07:27:15.548Z,27.43
2019-02-05T07:29:45.268Z,23.33
2019-02-05T07:32:14.963Z,30.03
2019-02-05T07:34:43.910Z,24.27
2019-02-05T07:37:14.107Z,24.80
2019-02-05T07:39:43.421Z,21.50
2019-02-05T07:42:12.722Z,27.07
2019-02-05T07:44:41.702Z,24.57
2019-02-05T07:47:11.171Z,25.23
2019-02-05T07:49:40.329Z,21.53
2019-02-05T07:52:10.382Z,26.30
2019-02-05T07:54:40.332Z,24.77
2019-02-05T07:57:09.916Z,24.27
2019-02-05T07:59:39.176Z,28.30
2019-02-05T08:02:08.155Z,22.13
2019-02-05T08:04:38.151Z,26.30
2019-02-05T08:07:07.793Z,24.73
2019-02-05T08:09:37.060Z,24.60
2019-02-05T08:12:07.180Z,24.40
2019-02-05T08:14:37.384Z,28.50
2019-02-05T08:17:07.104Z,30.43
2019-02-05T08:19:36.099Z,28.60
2019-02-05T08:22:05.637Z,27.43
2019-02-05T08:24:36.228Z,29.73
2019-02-05T08:27:05.692Z,27.33
2019-02-05T08:29:36.808Z,26.73
2019-02-05T08:32:06.396Z,28.83
2019-02-05T08:34:35.233Z,26.43
2019-02-05T08:37:06.408Z,29.07
2019-02-05T08:39:36.993Z,30.70
2019-02-05T08:42:06.364Z,26.97
2019-02-05T08:44:36.013Z,32.00
2019-02-05T08:47:05.447Z,30.53
2019-02-05T08:49:36.026Z,23.33
2019-02-05T08:52:06.494Z,28.27
2019-02-05T08:54:35.600Z,29.73
2019-02-05T08:57:05.524Z,23.30
2019-02-05T08:59:34.898Z,23.40
2019-02-05T09:02:05.964Z,26.43
2019-02-05T09:04:37.725Z,25.50
2019-02-05T09:07:06.981Z,26.77
2019-02-05T09:09:37.035Z,31.80
2019-02-05T09:12:06.428Z,32.20
2019-02-05T09:14:36.864Z,27.10
2019-02-05T09:17:07.391Z,32.23
2019-02-05T09:19:37.236Z,30.50
2019-02-05T09:22:06.504Z,29.30
2019-02-05T09:24:36.321Z,30.50
2019-02-05T09:27:05.797Z,26.87
2019-02-05T09:29:35.021Z,22.03
2019-02-05T09:32:04.137Z,29.73
2019-02-05T09:34:33.438Z,25.87
2019-02-05T09:37:04.868Z,27.60
2019-02-05T09:39:34.979Z,23.83
2019-02-05T09:42:04.708Z,21.77
2019-02-05T09:44:35.405Z,27.33
2019-02-05T09:47:05.440Z,25.77
2019-02-05T09:49:34.858Z,25.87
2019-02-05T09:52:04.664Z,25.63
2019-02-05T09:54:34.076Z,27.87
2019-02-05T09:57:04.320Z,21.00
2019-02-05T09:59:44.874Z,20.67
2019-02-05T10:02:04.058Z,18.00
2019-02-05T10:04:33.180Z,20.33
2019-02-05T10:07:03.764Z,20.53
2019-02-05T10:09:35.197Z,21.93
2019-02-05T10:12:05.233Z,19.97
2019-02-05T10:14:35.935Z,22.83
2019-02-05T10:17:05.516Z,22.13
2019-02-05T10:19:35.181Z,22.57
2019-02-05T10:22:05.263Z,18.33
2019-02-05T10:24:34.910Z,21.37
2019-02-05T10:27:04.105Z,20.77
2019-02-05T10:29:33.480Z,23.10
2019-02-05T10:32:03.097Z,22.87
2019-02-05T10:34:34.441Z,20.57
2019-02-05T10:37:04.360Z,21.47
2019-02-05T10:39:35.385Z,26.50
2019-02-05T10:42:04.532Z,27.57
2019-02-05T10:44:35.961Z,26.90
2019-02-05T10:47:06.404Z,22.30
2019-02-05T10:49:37.786Z,18.60
2019-02-05T10:52:06.882Z,23.53
2019-02-05T10:54:35.717Z,23.70
2019-02-05T10:57:04.838Z,20.63
2019-02-05T10:59:35.254Z,21.73
2019-02-05T11:02:06.203Z,22.37
2019-02-05T11:04:36.614Z,17.23
2019-02-05T11:07:06.294Z,19.87
2019-02-05T11:09:37.912Z,19.77
2019-02-05T11:12:07.256Z,18.33
2019-02-05T11:14:35.986Z,22.67
2019-02-05T11:17:05.236Z,20.30
2019-02-05T11:19:35.059Z,17.63
2019-02-05T11:22:06.008Z,18.70
2019-02-05T11:24:36.479Z,17.57
2019-02-05T11:27:24.832Z,13.77
2019-02-05T11:29:54.593Z,18.47
2019-02-05T11:32:24.051Z,14.83
2019-02-05T11:34:53.044Z,23.00
2019-02-05T11:37:22.341Z,14.57
2019-02-05T11:39:52.204Z,18.10
2019-02-05T11:42:21.390Z,16.77
2019-02-05T11:44:50.760Z,12.63
2019-02-05T11:47:19.580Z,13.60
2019-02-05T11:49:48.980Z,12.83
2019-02-05T11:52:18.103Z,11.67
2019-02-05T11:54:47.461Z,14.20
2019-02-05T11:57:16.669Z,14.23
2019-02-05T11:59:47.328Z,16.90
2019-02-05T12:02:17.640Z,13.03
2019-02-05T12:04:46.424Z,14.47
2019-02-05T12:07:16.134Z,14.97
2019-02-05T12:09:46.016Z,20.90
2019-02-05T12:12:16.430Z,14.93
2019-02-05T12:14:46.801Z,13.70
2019-02-05T12:17:17.867Z,18.27
2019-02-05T12:19:48.008Z,12.03
2019-02-05T12:22:18.308Z,15.93
2019-02-05T12:24:49.912Z,16.23
2019-02-05T12:27:20.877Z,16.57
2019-02-05T12:29:50.061Z,15.13
2019-02-05T12:32:20.149Z,14.67
2019-02-05T12:34:49.477Z,16.33
2019-02-05T12:37:19.014Z,17.77
2019-02-05T12:39:48.148Z,15.40
2019-02-05T12:42:17.058Z,16.17
2019-02-05T12:44:45.950Z,18.93
2019-02-05T12:47:15.103Z,13.03
2019-02-05T12:49:43.904Z,15.07
2019-02-05T12:52:14.100Z,15.17
2019-02-05T12:54:46.266Z,16.97
2019-02-05T12:57:15.871Z,16.13
2019-02-05T12:59:44.676Z,17.17
2019-02-05T13:02:13.952Z,17.73
2019-02-05T13:04:42.749Z,14.67
2019-02-05T13:07:11.749Z,17.47
2019-02-05T13:09:40.602Z,14.97
2019-02-05T13:12:09.442Z,15.63
2019-02-05T13:14:38.682Z,16.57
2019-02-05T13:17:08.875Z,15.30
2019-02-05T13:19:37.656Z,12.30
2019-02-05T13:22:06.736Z,17.17
2019-02-05T13:24:35.530Z,14.97
2019-02-05T13:27:04.520Z,23.53
2019-02-05T13:29:34.752Z,16.93
2019-02-05T13:32:07.647Z,10.67
2019-02-05T13:34:36.525Z,12.60
2019-02-05T13:37:05.685Z,15.63
2019-02-05T13:39:34.820Z,16.17
2019-02-05T13:42:03.951Z,13.80
2019-02-05T13:44:32.876Z,11.33
2019-02-05T13:47:02.112Z,11.27
2019-02-05T13:49:30.961Z,11.00
2019-02-05T13:51:59.864Z,14.83
2019-02-05T13:54:28.676Z,14.60
2019-02-05T13:56:57.556Z,9.50
2019-02-05T13:59:26.791Z,14.40
2019-02-05T14:01:56.019Z,12.60
2019-02-05T14:04:24.910Z,14.83
2019-02-05T14:06:54.444Z,13.63
2019-02-05T14:09:23.412Z,13.63
2019-02-05T14:11:52.491Z,9.77
2019-02-05T14:14:22.688Z,10.53
2019-02-05T14:16:51.564Z,12.17
2019-02-05T14:19:20.912Z,15.33
2019-02-05T14:21:49.816Z,11.67
2019-02-05T14:24:19.012Z,9.10
2019-02-05T14:26:48.020Z,13.00
2019-02-05T14:29:16.836Z,13.17
2019-02-05T14:31:45.556Z,9.83
2019-02-05T14:34:14.521Z,10.13
2019-02-05T14:36:43.304Z,8.50
2019-02-05T14:39:12.409Z,8.73
2019-02-05T14:41:41.244Z,10.97
2019-02-05T14:44:09.952Z,10.53
2019-02-05T14:46:39.196Z,7.70
2019-02-05T14:49:08.361Z,8.77
2019-02-05T14:51:37.346Z,9.97
2019-02-05T14:54:06.791Z,11.67
2019-02-05T14:56:35.602Z,8.30
2019-02-05T14:59:04.602Z,10.50
2019-02-05T15:01:42.682Z,7.77
2019-02-05T15:04:04.656Z,8.20
2019-02-05T15:06:33.756Z,6.83
2019-02-05T15:09:05.547Z,9.63
2019-02-05T15:11:34.937Z,8.47
2019-02-05T15:14:03.828Z,9.27
2019-02-05T15:16:32.656Z,7.73
2019-02-05T15:19:01.573Z,8.43
2019-02-05T15:21:30.288Z,9.03
2019-02-05T15:23:59.060Z,6.40
2019-02-05T15:26:28.068Z,8.17
2019-02-05T15:28:56.915Z,9.20
2019-02-05T15:31:26.774Z,8.37
2019-02-05T15:34:02.829Z,10.70
2019-02-05T15:36:33.597Z,10.27
2019-02-05T15:39:02.523Z,13.77
2019-02-05T15:41:31.516Z,14.43
2019-02-05T15:44:00.842Z,10.10
2019-02-05T15:46:31.221Z,12.80
2019-02-05T15:49:00.583Z,12.20
2019-02-05T15:51:29.443Z,12.30
2019-02-05T15:54:00.527Z,14.53
2019-02-05T15:56:30.224Z,14.10
2019-02-05T15:59:01.150Z,11.33
2019-02-05T16:01:31.169Z,10.57
2019-02-05T16:04:00.060Z,13.57
2019-02-05T16:06:28.920Z,15.13
2019-02-05T16:08:57.841Z,12.80
2019-02-05T16:11:26.814Z,14.43
2019-02-05T16:13:55.697Z,14.10
2019-02-05T16:16:25.440Z,12.90
2019-02-05T16:18:54.521Z,16.97
2019-02-05T16:21:23.824Z,18.37
2019-02-05T16:23:53.080Z,15.03
2019-02-05T16:26:23.200Z,16.97
2019-02-05T16:28:52.214Z,17.27
2019-02-05T16:31:21.416Z,14.63
2019-02-05T16:33:52.209Z,14.63
2019-02-05T16:36:21.014Z,13.47
2019-02-05T16:38:50.290Z,16.87
2019-02-05T16:41:19.084Z,17.60
2019-02-05T16:43:47.883Z,16.20
2019-02-05T16:46:16.879Z,18.80
2019-02-05T16:48:45.764Z,15.93
2019-02-05T16:51:14.548Z,19.43
2019-02-05T16:53:43.657Z,16.37
2019-02-05T16:56:17.803Z,16.47
2019-02-05T16:58:46.150Z,13.67
2019-02-05T17:01:17.156Z,17.13
2019-02-05T17:03:47.796Z,17.77
2019-02-05T17:06:17.616Z,15.30
2019-02-05T17:08:46.585Z,12.63
2019-02-05T17:11:15.353Z,15.87
2019-02-05T17:13:44.543Z,15.73
2019-02-05T17:16:13.652Z,15.87
2019-02-05T17:18:42.649Z,14.13
2019-02-05T17:21:11.509Z,13.57
2019-02-05T17:23:40.743Z,15.97
2019-02-05T17:26:09.604Z,20.70
2019-02-05T17:28:39.014Z,15.93
2019-02-05T17:31:08.035Z,12.97
2019-02-05T17:33:37.164Z,15.00
2019-02-05T17:36:06.307Z,16.97
2019-02-05T17:38:35.198Z,15.10
2019-02-05T17:41:07.123Z,18.23
2019-02-05T17:43:36.174Z,13.83
2019-02-05T17:46:06.675Z,19.17
2019-02-05T17:48:35.604Z,19.48
2019-02-05T17:51:04.796Z,16.70
2019-02-05T17:53:33.684Z,15.83
2019-02-05T17:56:02.584Z,15.63
2019-02-05T17:58:31.324Z,16.17
2019-02-05T18:01:08.868Z,20.47
2019-02-05T18:03:37.813Z,18.60
2019-02-05T18:06:07.663Z,19.30
2019-02-05T18:08:36.599Z,16.63
2019-02-05T18:11:06.378Z,16.60
2019-02-05T18:13:35.328Z,18.13
2019-02-05T18:16:12.471Z,16.90
2019-02-05T18:18:41.455Z,17.33
2019-02-05T18:21:10.448Z,19.63
2019-02-05T18:23:39.215Z,19.47
2019-02-05T18:26:08.290Z,18.40
2019-02-05T18:28:37.570Z,17.10
2019-02-05T18:31:06.620Z,17.20
2019-02-05T18:33:36.332Z,22.97
2019-02-05T18:36:05.923Z,20.57
2019-02-05T18:38:35.002Z,20.00
2019-02-05T18:41:04.277Z,22.23
2019-02-05T18:43:33.598Z,29.90
2019-02-05T18:46:02.649Z,22.97
2019-02-05T18:48:31.486Z,23.03
2019-02-05T18:51:00.353Z,24.93
2019-02-05T18:53:29.859Z,25.50
2019-02-05T18:55:58.784Z,24.80
2019-02-05T18:58:29.782Z,31.47
2019-02-05T19:00:59.324Z,29.17
2019-02-05T19:03:28.120Z,30.10
2019-02-05T19:05:57.137Z,26.77
2019-02-05T19:08:25.899Z,28.43
2019-02-05T19:10:54.700Z,30.67
2019-02-05T19:13:24.752Z,31.53
2019-02-05T19:15:53.528Z,31.97
2019-02-05T19:18:22.565Z,35.77
2019-02-05T19:20:53.588Z,34.17
2019-02-05T19:23:22.465Z,36.70
2019-02-05T19:26:12.921Z,32.83
2019-02-05T19:28:42.772Z,35.77
2019-02-05T19:31:44.698Z,34.37
2019-02-05T19:34:13.577Z,34.63
2019-02-05T19:36:42.373Z,33.43
2019-02-05T19:39:11.231Z,32.27
2019-02-05T19:41:40.336Z,41.43
2019-02-05T19:44:09.211Z,49.43
2019-02-05T19:46:47.979Z,44.63
2019-02-05T19:49:29.129Z,35.00
2019-02-05T19:51:58.138Z,37.83
2019-02-05T19:54:30.252Z,37.30
2019-02-05T19:56:59.379Z,42.10
2019-02-05T19:59:28.712Z,41.27
2019-02-05T20:01:57.720Z,46.17
2019-02-05T20:04:26.914Z,40.30
2019-02-05T20:06:55.854Z,42.80
2019-02-05T20:09:24.784Z,41.50
2019-02-05T20:11:53.637Z,42.17
2019-02-05T20:14:22.596Z,42.97
2019-02-05T20:16:51.419Z,47.30
2019-02-05T20:19:24.689Z,43.07
2019-02-05T20:21:53.500Z,43.60
2019-02-05T20:24:22.339Z,49.87
2019-02-05T20:26:51.101Z,43.73
2019-02-05T20:29:20.170Z,38.07
2019-02-05T20:31:49.013Z,40.07
2019-02-05T20:34:17.830Z,42.37
2019-02-05T20:36:46.896Z,41.43
2019-02-05T20:39:17.282Z,42.40
2019-02-05T20:41:47.333Z,46.90
2019-02-05T20:44:16.228Z,46.97
2019-02-05T20:46:45.679Z,52.53
2019-02-05T20:49:14.719Z,49.73
2019-02-05T20:51:44.296Z,53.83
2019-02-05T20:54:13.285Z,51.13
2019-02-05T20:56:42.510Z,46.03
2019-02-05T20:59:11.472Z,45.03
2019-02-05T21:01:40.768Z,53.93
2019-02-05T21:04:09.676Z,51.70
2019-02-05T21:06:38.821Z,48.70
2019-02-05T21:09:19.627Z,47.37
2019-02-05T21:11:49.044Z,49.03
2019-02-05T21:14:18.435Z,50.37
2019-02-05T21:16:47.663Z,54.43
2019-02-05T21:19:16.846Z,56.20
2019-02-05T21:21:46.051Z,53.43
2019-02-05T21:24:15.189Z,54.33
2019-02-05T21:26:46.770Z,50.23
2019-02-05T21:29:15.624Z,51.03
2019-02-05T21:31:44.716Z,51.37
2019-02-05T21:34:15.772Z,57.43
2019-02-05T21:36:44.292Z,54.47
2019-02-05T21:39:13.784Z,58.50
2019-02-05T21:41:43.413Z,55.20
2019-02-05T21:44:13.372Z,62.40
2019-02-05T21:46:42.476Z,68.43
2019-02-05T21:49:11.828Z,61.63
2019-02-05T21:51:42.086Z,60.37
2019-02-05T21:54:11.410Z,64.83
2019-02-05T21:56:40.380Z,57.93
2019-02-05T21:59:09.291Z,59.80
2019-02-05T22:01:38.131Z,64.73
2019-02-05T22:04:09.997Z,58.13
2019-02-05T22:06:37.868Z,57.87
2019-02-05T22:09:11.045Z,63.93
2019-02-05T22:11:41.019Z,66.90
2019-02-05T22:14:10.033Z,56.93
2019-02-05T22:16:38.967Z,65.83
2019-02-05T22:19:08.151Z,68.47
2019-02-05T22:21:37.534Z,74.43
2019-02-05T22:24:06.528Z,85.73
2019-02-05T22:26:36.184Z,79.30
2019-02-05T22:29:05.982Z,72.53
2019-02-05T22:31:34.837Z,83.23
2019-02-05T22:34:04.218Z,67.20
2019-02-05T22:36:33.131Z,69.83
2019-02-05T22:39:02.008Z,77.17
2019-02-05T22:41:30.840Z,69.73
2019-02-05T22:43:59.726Z,77.17
2019-02-05T22:46:28.691Z,91.47
2019-02-05T22:48:57.624Z,84.90
2019-02-05T22:51:26.420Z,75.87
2019-02-05T22:53:55.592Z,65.80
2019-02-05T22:56:24.696Z,75.20
2019-02-05T22:58:54.065Z,68.03
2019-02-05T23:01:38.531Z,75.63
2019-02-05T23:04:15.658Z,77.27
2019-02-05T23:07:10.493Z,71.90
2019-02-05T23:10:17.956Z,75.20
2019-02-05T23:12:51.644Z,79.67
2019-02-05T23:15:25.702Z,81.33
2019-02-05T23:17:54.571Z,75.60
2019-02-05T23:20:24.333Z,79.27
2019-02-05T23:22:56.983Z,69.53
2019-02-05T23:25:25.744Z,69.53
2019-02-05T23:27:54.774Z,67.00
2019-02-05T23:30:31.061Z,71.73
2019-02-05T23:33:00.525Z,63.53
2019-02-05T23:35:32.538Z,57.43
2019-02-05T23:38:00.785Z,51.57
2019-02-05T23:40:29.744Z,62.37
2019-02-05T23:42:58.849Z,60.97
2019-02-05T23:45:28.060Z,64.77
2019-02-05T23:47:56.796Z,65.03
2019-02-05T23:50:25.958Z,61.40
2019-02-05T23:52:54.683Z,59.10
2019-02-05T23:55:23.482Z,58.80
2019-02-05T23:57:52.502Z,68.97
